createdAt,value
2018-05-11T00:02:01.707Z,28.83
2018-05-11T00:04:35.786Z,29.07
2018-05-11T00:07:11.168Z,27.10
2018-05-11T00:09:44.833Z,30.67
2018-05-11T00:12:21.069Z,38.63
2018-05-11T00:14:54.735Z,34.07
2018-05-11T00:17:29.383Z,33.50
2018-05-11T00:20:03.056Z,29.70
2018-05-11T00:22:37.971Z,38.27
2018-05-11T00:25:11.640Z,32.40
2018-05-11T00:27:45.362Z,29.40
2018-05-11T00:30:19.030Z,34.93
2018-05-11T00:32:53.686Z,31.70
2018-05-11T00:35:27.343Z,28.23
2018-05-11T00:38:01.023Z,31.87
2018-05-11T00:40:35.455Z,26.80
2018-05-11T00:43:09.915Z,33.50
2018-05-11T00:45:44.346Z,34.93
2018-05-11T00:48:18.219Z,32.93
2018-05-11T00:50:51.899Z,30.07
2018-05-11T00:53:26.336Z,29.30
2018-05-11T00:56:00.008Z,31.83
2018-05-11T00:58:35.420Z,31.83
2018-05-11T01:01:10.104Z,32.20
2018-05-11T01:03:43.777Z,29.20
2018-05-11T01:06:18.425Z,31.93
2018-05-11T01:08:53.055Z,31.07
2018-05-11T01:11:26.732Z,34.83
2018-05-11T01:14:01.173Z,25.20
2018-05-11T01:16:34.855Z,31.53
2018-05-11T01:19:08.954Z,27.97
2018-05-11T01:21:43.567Z,31.77
2018-05-11T01:24:17.232Z,28.37
2018-05-11T01:26:51.884Z,37.73
2018-05-11T01:29:25.558Z,30.70
2018-05-11T01:31:59.224Z,33.60
2018-05-11T01:34:34.586Z,27.13
2018-05-11T01:37:08.572Z,27.00
2018-05-11T01:39:43.993Z,26.17
2018-05-11T01:42:18.636Z,25.10
2018-05-11T01:44:53.069Z,28.23
2018-05-11T01:47:27.701Z,26.60
2018-05-11T01:50:01.363Z,26.23
2018-05-11T01:52:35.039Z,26.67
2018-05-11T01:55:09.693Z,25.03
2018-05-11T01:57:44.135Z,31.20
2018-05-11T02:00:17.800Z,38.20
2018-05-11T02:02:52.424Z,26.70
2018-05-11T02:05:27.092Z,37.70
2018-05-11T02:08:00.439Z,30.77
2018-05-11T02:10:33.815Z,23.47
2018-05-11T02:13:08.420Z,33.10
2018-05-11T02:15:42.090Z,25.30
2018-05-11T02:18:15.757Z,35.00
2018-05-11T02:20:49.435Z,26.80
2018-05-11T02:23:24.061Z,24.17
2018-05-11T02:25:57.787Z,24.20
2018-05-11T02:28:32.580Z,21.70
2018-05-11T02:31:07.230Z,23.47
2018-05-11T02:33:40.905Z,22.87
2018-05-11T02:36:15.551Z,20.93
2018-05-11T02:38:49.011Z,25.27
2018-05-11T02:41:22.460Z,21.20
2018-05-11T02:43:56.130Z,25.20
2018-05-11T02:46:30.809Z,21.97
2018-05-11T02:49:05.238Z,19.47
2018-05-11T02:51:38.928Z,18.63
2018-05-11T02:54:14.305Z,20.13
2018-05-11T02:56:48.943Z,14.03
2018-05-11T02:59:23.566Z,17.80
2018-05-11T03:01:58.257Z,22.13
2018-05-11T03:04:31.933Z,20.30
2018-05-11T03:07:06.364Z,24.13
2018-05-11T03:09:40.805Z,18.03
2018-05-11T03:12:15.461Z,19.93
2018-05-11T03:14:49.142Z,21.13
2018-05-11T03:17:22.804Z,19.70
2018-05-11T03:19:57.253Z,18.70
2018-05-11T03:22:30.918Z,17.50
2018-05-11T03:25:06.357Z,19.77
2018-05-11T03:27:40.021Z,25.97
2018-05-11T03:30:13.689Z,25.43
2018-05-11T03:32:47.363Z,24.87
2018-05-11T03:35:22.781Z,17.43
2018-05-11T03:37:56.452Z,23.90
2018-05-11T03:40:31.050Z,25.37
2018-05-11T03:43:04.717Z,20.83
2018-05-11T03:45:38.398Z,21.87
2018-05-11T03:48:12.264Z,25.27
2018-05-11T03:50:45.990Z,27.43
2018-05-11T03:53:19.669Z,18.33
2018-05-11T03:55:53.347Z,18.37
2018-05-11T03:58:28.762Z,19.07
2018-05-11T04:01:01.792Z,20.60
2018-05-11T04:03:47.760Z,21.57
2018-05-11T04:09:34.014Z,12.67
2018-05-11T04:12:08.671Z,19.43
2018-05-11T04:14:42.341Z,15.03
2018-05-11T04:17:16.992Z,21.27
2018-05-11T04:19:50.671Z,15.27
2018-05-11T04:22:24.335Z,22.50
2018-05-11T04:24:59.736Z,20.47
2018-05-11T04:27:34.399Z,15.97
2018-05-11T04:30:08.093Z,18.37
2018-05-11T04:32:42.886Z,19.07
2018-05-11T04:35:16.559Z,14.63
2018-05-11T04:37:51.204Z,18.23
2018-05-11T04:40:24.875Z,16.30
2018-05-11T04:42:58.551Z,16.20
2018-05-11T04:45:32.978Z,14.77
2018-05-11T04:48:07.481Z,16.27
2018-05-11T04:50:42.085Z,14.50
2018-05-11T04:53:15.755Z,15.77
2018-05-11T04:55:50.300Z,21.17
2018-05-11T04:58:24.949Z,15.53
2018-05-11T05:00:59.609Z,15.63
2018-05-11T05:03:33.281Z,16.73
2018-05-11T05:06:08.156Z,17.43
2018-05-11T05:08:41.833Z,19.27
2018-05-11T05:11:16.845Z,16.67
2018-05-11T05:13:52.672Z,17.23
2018-05-11T05:16:27.400Z,17.70
2018-05-11T05:19:00.872Z,16.43
2018-05-11T05:21:34.492Z,14.90
2018-05-11T05:24:12.150Z,20.27
2018-05-11T05:26:48.295Z,14.40
2018-05-11T05:29:23.496Z,18.67
2018-05-11T05:31:58.653Z,15.73
2018-05-11T05:34:33.325Z,15.43
2018-05-11T05:37:09.693Z,18.83
2018-05-11T05:39:43.576Z,16.67
2018-05-11T05:42:19.857Z,16.87
2018-05-11T05:44:53.772Z,14.80
2018-05-11T05:47:28.056Z,17.13
2018-05-11T05:50:02.072Z,19.33
2018-05-11T05:52:38.953Z,16.67
2018-05-11T05:55:12.615Z,17.80
2018-05-11T05:57:47.053Z,14.73
2018-05-11T06:00:20.723Z,15.20
2018-05-11T06:02:54.388Z,20.10
2018-05-11T06:05:28.057Z,20.70
2018-05-11T06:08:01.446Z,14.13
2018-05-11T06:10:35.115Z,16.20
2018-05-11T06:13:08.776Z,18.60
2018-05-11T06:15:43.407Z,17.30
2018-05-11T06:18:18.031Z,16.93
2018-05-11T06:20:51.703Z,16.03
2018-05-11T06:23:25.381Z,17.43
2018-05-11T06:25:59.483Z,17.70
2018-05-11T06:28:34.129Z,15.50
2018-05-11T06:31:08.768Z,16.30
2018-05-11T06:33:42.447Z,14.60
2018-05-11T06:36:17.852Z,19.23
2018-05-11T06:38:51.518Z,13.83
2018-05-11T06:41:26.119Z,18.83
2018-05-11T06:44:01.560Z,17.70
2018-05-11T06:46:40.587Z,15.23
2018-05-11T06:49:18.243Z,17.63
2018-05-11T06:51:56.454Z,12.03
2018-05-11T06:54:31.405Z,15.77
2018-05-11T06:57:05.961Z,12.77
2018-05-11T06:59:41.562Z,13.83
2018-05-11T07:02:15.988Z,11.37
2018-05-11T07:04:51.040Z,17.27
2018-05-11T07:07:25.486Z,15.93
2018-05-11T07:10:00.799Z,15.30
2018-05-11T07:12:35.429Z,14.53
2018-05-11T07:15:09.113Z,14.13
2018-05-11T07:17:42.772Z,12.30
2018-05-11T07:20:17.416Z,14.07
2018-05-11T07:22:51.132Z,12.83
2018-05-11T07:25:24.957Z,10.60
2018-05-11T07:27:59.583Z,15.40
2018-05-11T07:30:34.227Z,17.27
2018-05-11T07:33:08.879Z,14.63
2018-05-11T07:35:43.521Z,14.53
2018-05-11T07:38:17.180Z,13.37
2018-05-11T07:40:51.846Z,13.80
2018-05-11T07:43:25.575Z,15.20
2018-05-11T07:46:00.344Z,11.57
2018-05-11T07:48:34.203Z,12.83
2018-05-11T07:51:09.608Z,14.40
2018-05-11T07:53:43.275Z,16.73
2018-05-11T07:56:16.986Z,13.83
2018-05-11T07:58:50.647Z,13.87
2018-05-11T08:01:25.090Z,11.53
2018-05-11T08:03:58.813Z,17.37
2018-05-11T08:06:32.972Z,10.40
2018-05-11T08:09:08.260Z,12.13
2018-05-11T08:11:51.549Z,9.07
2018-05-11T08:14:28.003Z,8.95
2018-05-11T08:17:02.500Z,10.48
2018-05-11T08:19:36.769Z,9.68
2018-05-11T08:22:11.948Z,9.15
2018-05-11T08:24:46.920Z,7.65
2018-05-11T08:27:21.155Z,11.38
2018-05-11T08:29:56.308Z,13.60
2018-05-11T08:32:31.309Z,10.90
2018-05-11T08:35:05.915Z,10.52
2018-05-11T08:37:41.095Z,8.07
2018-05-11T08:40:15.332Z,9.43
2018-05-11T08:42:50.324Z,9.20
2018-05-11T08:45:25.464Z,9.20
2018-05-11T08:47:59.693Z,9.10
2018-05-11T08:50:33.833Z,12.05
2018-05-11T08:53:08.973Z,9.15
2018-05-11T08:55:43.740Z,8.07
2018-05-11T08:58:17.744Z,11.48
2018-05-11T09:00:51.957Z,9.52
2018-05-11T09:03:26.180Z,6.95
2018-05-11T09:06:01.374Z,9.90
2018-05-11T09:08:35.629Z,8.35
2018-05-11T09:11:09.855Z,8.07
2018-05-11T09:13:44.071Z,8.90
2018-05-11T09:16:18.518Z,7.15
2018-05-11T09:18:52.745Z,5.60
2018-05-11T09:21:27.064Z,6.40
2018-05-11T09:24:01.403Z,7.25
2018-05-11T09:26:35.636Z,7.87
2018-05-11T09:29:10.239Z,7.53
2018-05-11T09:31:46.229Z,6.32
2018-05-11T09:34:20.509Z,9.35
2018-05-11T09:36:54.752Z,8.48
2018-05-11T09:39:28.993Z,9.48
2018-05-11T09:42:03.387Z,5.45
2018-05-11T09:44:37.640Z,6.50
2018-05-11T09:47:11.659Z,6.60
2018-05-11T09:49:55.436Z,9.73
2018-05-11T09:55:22.624Z,7.12
2018-05-11T09:57:57.014Z,7.55
2018-05-11T10:00:34.398Z,6.60
2018-05-11T10:03:09.575Z,6.45
2018-05-11T10:05:43.817Z,4.90
2018-05-11T10:08:17.739Z,6.78
2018-05-11T10:10:52.745Z,4.93
2018-05-11T10:13:46.499Z,4.95
2018-05-11T10:16:48.362Z,7.20
2018-05-11T10:22:22.979Z,9.45
2018-05-11T10:24:58.163Z,7.18
2018-05-11T10:27:34.124Z,8.10
2018-05-11T10:30:08.388Z,4.85
2018-05-11T10:32:42.604Z,4.05
2018-05-11T10:35:28.086Z,6.57
2018-05-11T10:38:02.542Z,6.47
2018-05-11T10:40:42.380Z,5.10
2018-05-11T10:43:20.173Z,6.47
2018-05-11T10:46:02.763Z,7.43
2018-05-11T10:48:41.107Z,8.93
2018-05-11T10:51:19.365Z,5.00
2018-05-11T10:53:56.059Z,4.90
2018-05-11T10:56:30.503Z,8.68
2018-05-11T10:59:09.685Z,7.82
2018-05-11T11:01:44.487Z,8.73
2018-05-11T11:04:22.688Z,6.97
2018-05-11T11:06:58.526Z,9.02
2018-05-11T11:09:36.272Z,5.53
2018-05-11T11:12:12.600Z,6.60
2018-05-11T11:14:50.979Z,8.85
2018-05-11T11:17:25.936Z,12.18
2018-05-11T11:20:01.465Z,7.55
2018-05-11T11:22:38.147Z,9.00
2018-05-11T11:25:12.460Z,7.35
2018-05-11T11:27:51.253Z,8.85
2018-05-11T11:30:31.629Z,10.07
2018-05-11T11:33:09.830Z,8.35
2018-05-11T11:35:45.536Z,6.85
2018-05-11T11:38:23.576Z,7.87
2018-05-11T11:40:57.942Z,9.02
2018-05-11T11:43:32.338Z,6.65
2018-05-11T11:46:09.140Z,8.70
2018-05-11T11:48:43.422Z,9.93
2018-05-11T11:51:20.218Z,8.75
2018-05-11T11:53:54.442Z,8.20
2018-05-11T11:56:29.885Z,7.57
2018-05-11T11:59:05.341Z,7.43
2018-05-11T12:01:39.688Z,10.20
2018-05-11T12:04:14.008Z,9.13
2018-05-11T12:06:49.780Z,8.20
2018-05-11T12:09:23.997Z,8.57
2018-05-11T12:14:53.444Z,9.80
2018-05-11T12:17:35.977Z,6.93
2018-05-11T12:20:10.209Z,8.20
2018-05-11T12:22:45.652Z,4.95
2018-05-11T12:25:19.928Z,7.25
2018-05-11T12:27:54.164Z,5.60
2018-05-11T12:30:28.387Z,8.07
2018-05-11T12:33:03.579Z,7.20
2018-05-11T12:35:37.484Z,5.10
2018-05-11T12:38:12.648Z,5.82
2018-05-11T12:40:46.880Z,5.82
2018-05-11T12:43:21.101Z,6.30
2018-05-11T12:45:56.288Z,7.18
2018-05-11T12:48:31.472Z,7.78
2018-05-11T12:51:05.731Z,4.72
2018-05-11T12:53:39.957Z,6.90
2018-05-11T12:56:14.560Z,5.12
2018-05-11T12:58:49.558Z,7.32
2018-05-11T13:01:23.787Z,6.50
2018-05-11T13:03:58.016Z,5.57
2018-05-11T13:06:33.980Z,6.93
2018-05-11T13:09:09.181Z,5.53
2018-05-11T13:11:43.411Z,7.12
2018-05-11T13:14:17.666Z,4.43
2018-05-11T13:16:51.900Z,4.97
2018-05-11T13:19:26.132Z,5.57
2018-05-11T13:22:00.359Z,3.95
2018-05-11T13:24:35.536Z,1.62
2018-05-11T13:27:10.695Z,4.55
2018-05-11T13:29:44.912Z,1.58
2018-05-11T13:32:20.082Z,2.00
2018-05-11T13:34:54.300Z,1.65
2018-05-11T13:37:29.485Z,3.42
2018-05-11T13:40:03.388Z,2.80
2018-05-11T13:42:37.612Z,2.22
2018-05-11T13:45:12.779Z,3.22
2018-05-11T13:47:47.975Z,2.65
2018-05-11T13:50:22.204Z,2.92
2018-05-11T13:52:56.437Z,4.32
2018-05-11T13:55:31.645Z,3.30
2018-05-11T13:58:05.871Z,1.73
2018-05-11T14:00:40.098Z,1.70
2018-05-11T14:03:14.334Z,1.95
2018-05-11T14:05:48.568Z,3.17
2018-05-11T14:08:22.800Z,2.65
2018-05-11T14:10:57.025Z,1.95
2018-05-11T14:13:32.244Z,1.85
2018-05-11T14:16:07.240Z,1.67
2018-05-11T14:18:41.480Z,1.40
2018-05-11T14:21:16.501Z,2.90
2018-05-11T14:23:51.666Z,2.95
2018-05-11T14:26:26.879Z,1.83
2018-05-11T14:29:02.094Z,1.20
2018-05-11T14:31:36.323Z,1.85
2018-05-11T14:34:11.536Z,3.17
2018-05-11T14:36:45.755Z,0.60
2018-05-11T14:39:20.018Z,1.37
2018-05-11T14:41:54.407Z,1.12
2018-05-11T14:44:28.625Z,1.50
2018-05-11T14:47:03.641Z,2.60
2018-05-11T14:49:37.981Z,1.37
2018-05-11T14:52:13.237Z,0.55
2018-05-11T14:54:47.258Z,2.95
2018-05-11T14:57:21.484Z,2.37
2018-05-11T14:59:55.922Z,2.17
2018-05-11T15:02:31.115Z,2.30
2018-05-11T15:05:06.131Z,3.22
2018-05-11T15:07:42.104Z,1.92
2018-05-11T15:10:17.268Z,2.47
2018-05-11T15:12:51.541Z,1.80
2018-05-11T15:15:26.563Z,2.00
2018-05-11T15:18:00.805Z,1.60
2018-05-11T15:20:35.971Z,2.90
2018-05-11T15:23:17.279Z,3.47
2018-05-11T15:25:52.533Z,3.75
2018-05-11T15:28:27.752Z,2.20
2018-05-11T15:31:01.981Z,3.47
2018-05-11T15:33:36.212Z,4.95
2018-05-11T15:36:10.885Z,3.58
2018-05-11T15:38:45.106Z,4.43
2018-05-11T15:41:19.326Z,3.92
2018-05-11T15:43:53.558Z,2.60
2018-05-11T15:46:27.825Z,3.62
2018-05-11T15:49:02.067Z,7.30
2018-05-11T15:51:37.280Z,3.08
2018-05-11T15:54:11.510Z,1.23
2018-05-11T15:56:45.737Z,2.62
2018-05-11T15:59:19.967Z,1.85
2018-05-11T16:01:54.199Z,2.78
2018-05-11T16:04:29.218Z,2.17
2018-05-11T16:07:03.448Z,1.05
2018-05-11T16:09:37.112Z,1.35
2018-05-11T16:12:12.319Z,2.65
2018-05-11T16:14:46.537Z,1.25
2018-05-11T16:17:20.772Z,1.40
2018-05-11T16:19:54.992Z,2.05
2018-05-11T16:22:28.917Z,1.85
2018-05-11T16:25:04.246Z,4.20
2018-05-11T16:27:38.476Z,1.48
2018-05-11T16:30:13.662Z,1.95
2018-05-11T16:32:48.303Z,2.58
2018-05-11T16:35:22.022Z,3.20
2018-05-11T16:37:56.264Z,3.95
2018-05-11T16:40:31.266Z,2.72
2018-05-11T16:43:04.291Z,2.13
2018-05-11T16:45:40.327Z,2.75
2018-05-11T16:48:14.624Z,4.25
2018-05-11T16:50:48.636Z,3.10
2018-05-11T16:53:22.306Z,1.67
2018-05-11T16:55:57.664Z,1.37
2018-05-11T16:58:31.889Z,3.90
2018-05-11T17:01:06.520Z,2.17
2018-05-11T17:03:41.715Z,1.55
2018-05-11T17:06:15.379Z,5.20
2018-05-11T17:08:49.051Z,3.60
2018-05-11T17:11:22.713Z,5.12
2018-05-11T17:13:56.384Z,1.40
2018-05-11T17:16:31.082Z,5.97
2018-05-11T17:19:04.911Z,2.90
2018-05-11T17:21:39.757Z,6.13
2018-05-11T17:24:13.430Z,2.35
2018-05-11T17:26:48.641Z,37.90
2018-05-11T17:29:23.256Z,4.57
2018-05-11T17:31:57.684Z,1.70
2018-05-11T17:34:32.114Z,6.93
2018-05-11T17:37:06.756Z,1.80
2018-05-11T17:39:40.431Z,4.93
2018-05-11T17:42:14.099Z,0.53
2018-05-11T17:44:47.775Z,1.73
2018-05-11T17:47:21.428Z,0.40
2018-05-11T17:49:56.068Z,0.83
2018-05-11T17:52:30.689Z,1.60
2018-05-11T17:55:04.352Z,2.07
2018-05-11T17:57:38.979Z,3.23
2018-05-11T18:00:12.647Z,0.50
2018-05-11T18:02:46.317Z,0.63
2018-05-11T18:05:19.978Z,1.00
2018-05-11T18:07:53.649Z,2.17
2018-05-11T18:10:28.290Z,0.63
2018-05-11T18:13:01.965Z,2.23
2018-05-11T18:15:35.649Z,0.80
2018-05-11T18:18:09.316Z,1.07
2018-05-11T18:20:43.025Z,1.90
2018-05-11T18:23:18.448Z,0.90
2018-05-11T18:25:52.126Z,2.10
2018-05-11T18:28:25.793Z,1.23
2018-05-11T18:30:59.479Z,1.40
2018-05-11T18:33:35.022Z,2.13
2018-05-11T18:36:09.451Z,0.97
2018-05-11T18:38:44.087Z,1.20
2018-05-11T18:41:18.775Z,2.27
2018-05-11T18:43:52.594Z,2.10
2018-05-11T18:46:26.814Z,1.20
2018-05-11T18:49:00.477Z,2.43
2018-05-11T18:51:33.933Z,1.57
2018-05-11T18:54:08.918Z,1.73
2018-05-11T18:56:42.457Z,2.07
2018-05-11T18:59:16.129Z,2.07
2018-05-11T19:01:50.568Z,4.53
2018-05-11T19:04:24.249Z,1.67
2018-05-11T19:06:58.693Z,3.03
2018-05-11T19:09:32.357Z,5.10
2018-05-11T19:12:06.029Z,2.07
2018-05-11T19:14:39.706Z,2.97
2018-05-11T19:17:14.355Z,3.50
2018-05-11T19:19:48.016Z,2.40
2018-05-11T19:22:21.832Z,3.40
2018-05-11T19:24:55.506Z,6.13
2018-05-11T19:27:30.892Z,3.20
2018-05-11T19:30:04.841Z,2.70
2018-05-11T19:32:39.479Z,3.00
2018-05-11T19:35:14.870Z,4.07
2018-05-11T19:37:48.536Z,3.50
2018-05-11T19:40:22.200Z,4.50
2018-05-11T19:42:55.877Z,4.20
2018-05-11T19:45:30.520Z,5.80
2018-05-11T19:48:04.187Z,3.60
2018-05-11T19:50:38.839Z,5.77
2018-05-11T19:53:13.548Z,4.40
2018-05-11T19:55:48.231Z,4.13
2018-05-11T19:58:23.599Z,7.00
2018-05-11T20:00:57.272Z,3.40
2018-05-11T20:03:31.695Z,3.20
2018-05-11T20:06:05.382Z,4.93
2018-05-11T20:08:39.814Z,6.77
2018-05-11T20:11:17.092Z,3.33
2018-05-11T20:13:52.438Z,6.27
2018-05-11T20:16:26.105Z,3.93
2018-05-11T20:18:59.781Z,4.60
2018-05-11T20:21:33.447Z,3.67
2018-05-11T20:24:06.963Z,3.93
2018-05-11T20:26:41.385Z,5.00
2018-05-11T20:29:15.044Z,4.47
2018-05-11T20:31:50.462Z,3.60
2018-05-11T20:34:25.079Z,5.50
2018-05-11T20:36:59.668Z,3.27
2018-05-11T20:39:34.340Z,4.30
2018-05-11T20:42:09.124Z,3.83
2018-05-11T20:44:43.717Z,4.43
2018-05-11T20:47:18.162Z,4.70
2018-05-11T20:49:51.835Z,3.80
2018-05-11T20:52:26.265Z,3.77
2018-05-11T20:55:00.853Z,5.33
2018-05-11T20:57:34.520Z,3.70
2018-05-11T21:00:08.196Z,7.37
2018-05-11T21:02:42.783Z,5.20
2018-05-11T21:05:16.440Z,5.33
2018-05-11T21:07:50.108Z,3.17
2018-05-11T21:10:24.541Z,3.63
2018-05-11T21:12:58.234Z,5.43
2018-05-11T21:15:31.897Z,3.17
2018-05-11T21:18:05.563Z,7.53
2018-05-11T21:20:42.013Z,5.73
2018-05-11T21:23:16.646Z,6.53
2018-05-11T21:25:50.317Z,3.50
2018-05-11T21:28:24.760Z,7.13
2018-05-11T21:30:58.417Z,5.20
2018-05-11T21:33:32.836Z,4.83
2018-05-11T21:36:08.357Z,9.10
2018-05-11T21:38:43.008Z,5.23
2018-05-11T21:41:17.639Z,4.77
2018-05-11T21:43:53.089Z,6.70
2018-05-11T21:46:27.521Z,4.50
2018-05-11T21:49:01.195Z,4.83
2018-05-11T21:51:35.625Z,4.63
2018-05-11T21:54:11.032Z,5.77
2018-05-11T21:56:44.690Z,5.87
2018-05-11T21:59:19.344Z,5.57
2018-05-11T22:01:53.005Z,4.93
2018-05-11T22:04:26.680Z,5.43
2018-05-11T22:07:01.305Z,5.03
2018-05-11T22:09:34.968Z,5.97
2018-05-11T22:12:08.631Z,4.40
2018-05-11T22:14:42.298Z,5.00
2018-05-11T22:17:15.962Z,5.33
2018-05-11T22:19:49.635Z,5.60
2018-05-11T22:22:23.301Z,6.80
2018-05-11T22:24:56.973Z,7.63
2018-05-11T22:27:30.630Z,6.03
2018-05-11T22:30:04.792Z,5.90
2018-05-11T22:32:38.458Z,7.43
2018-05-11T22:35:12.134Z,6.33
2018-05-11T22:37:47.557Z,5.40
2018-05-11T22:40:21.267Z,6.43
2018-05-11T22:42:54.933Z,5.23
2018-05-11T22:45:30.288Z,6.20
2018-05-11T22:48:04.913Z,7.40
2018-05-11T22:50:38.592Z,5.10
2018-05-11T22:53:12.287Z,6.90
2018-05-11T22:55:45.952Z,7.67
2018-05-11T22:58:21.375Z,6.27
2018-05-11T23:00:56.038Z,7.07
2018-05-11T23:03:30.772Z,5.67
2018-05-11T23:06:04.462Z,7.30
2018-05-11T23:08:38.133Z,7.20
2018-05-11T23:11:11.800Z,6.57
2018-05-11T23:13:46.452Z,6.57
2018-05-11T23:16:21.060Z,9.33
2018-05-11T23:18:54.725Z,10.17
2018-05-11T23:21:29.712Z,8.83
2018-05-11T23:26:44.270Z,10.77
2018-05-11T23:29:17.951Z,12.10
2018-05-11T23:31:51.618Z,10.73
2018-05-11T23:34:25.794Z,13.07
2018-05-11T23:36:59.456Z,9.50
2018-05-11T23:39:39.707Z,9.03
2018-05-11T23:42:19.908Z,8.23
2018-05-11T23:44:57.994Z,12.33
2018-05-11T23:47:32.502Z,12.10
2018-05-11T23:50:09.631Z,12.50
2018-05-11T23:52:45.332Z,15.87
2018-05-11T23:55:20.066Z,15.27
2018-05-11T23:57:53.745Z,13.97
